sensor_id;sensor_type;location;lat;lon;timestamp;P1;durP1;ratioP1;P2;durP2;ratioP2
49948;SDS011;35840;45.982;8.890;2022-12-07T00:03:45;5.53;;;3.30;;
49948;SDS011;35840;45.982;8.890;2022-12-07T00:06:15;5.22;;;2.67;;
49948;SDS011;35840;45.982;8.890;2022-12-07T00:08:44;5.55;;;2.58;;
49948;SDS011;35840;45.982;8.890;2022-12-07T00:13:39;8.73;;;2.83;;
49948;SDS011;35840;45.982;8.890;2022-12-07T00:16:08;4.68;;;3.20;;
49948;SDS011;35840;45.982;8.890;2022-12-07T00:18:39;3.95;;;2.80;;
49948;SDS011;35840;45.982;8.890;2022-12-07T00:21:09;3.88;;;2.53;;
49948;SDS011;35840;45.982;8.890;2022-12-07T00:23:37;3.88;;;2.53;;
49948;SDS011;35840;45.982;8.890;2022-12-07T00:26:09;4.30;;;2.80;;
49948;SDS011;35840;45.982;8.890;2022-12-07T00:28:37;3.20;;;2.80;;
49948;SDS011;35840;45.982;8.890;2022-12-07T00:31:11;5.60;;;3.42;;
49948;SDS011;35840;45.982;8.890;2022-12-07T00:33:38;6.28;;;2.72;;
49948;SDS011;35840;45.982;8.890;2022-12-07T00:36:07;4.10;;;2.72;;
49948;SDS011;35840;45.982;8.890;2022-12-07T00:38:36;3.45;;;2.33;;
49948;SDS011;35840;45.982;8.890;2022-12-07T00:41:05;3.50;;;2.33;;
49948;SDS011;35840;45.982;8.890;2022-12-07T00:43:33;4.80;;;3.50;;
49948;SDS011;35840;45.982;8.890;2022-12-07T00:46:00;4.25;;;3.00;;
49948;SDS011;35840;45.982;8.890;2022-12-07T00:48:27;4.13;;;2.70;;
49948;SDS011;35840;45.982;8.890;2022-12-07T00:50:54;4.68;;;3.10;;
49948;SDS011;35840;45.982;8.890;2022-12-07T00:53:21;4.32;;;2.42;;
49948;SDS011;35840;45.982;8.890;2022-12-07T00:55:47;2.47;;;2.00;;
49948;SDS011;35840;45.982;8.890;2022-12-07T00:58:15;3.95;;;2.50;;
49948;SDS011;35840;45.982;8.890;2022-12-07T01:00:42;4.07;;;2.10;;
49948;SDS011;35840;45.982;8.890;2022-12-07T01:03:10;5.07;;;2.53;;
49948;SDS011;35840;45.982;8.890;2022-12-07T01:05:38;3.55;;;2.63;;
49948;SDS011;35840;45.982;8.890;2022-12-07T01:08:06;2.50;;;2.00;;
49948;SDS011;35840;45.982;8.890;2022-12-07T01:10:33;2.92;;;1.98;;
49948;SDS011;35840;45.982;8.890;2022-12-07T01:13:00;3.47;;;1.90;;
49948;SDS011;35840;45.982;8.890;2022-12-07T01:15:26;3.53;;;2.00;;
49948;SDS011;35840;45.982;8.890;2022-12-07T01:17:53;3.75;;;2.10;;
49948;SDS011;35840;45.982;8.890;2022-12-07T01:20:21;4.75;;;1.98;;
49948;SDS011;35840;45.982;8.890;2022-12-07T01:22:48;3.53;;;2.50;;
49948;SDS011;35840;45.982;8.890;2022-12-07T01:25:15;2.45;;;1.73;;
49948;SDS011;35840;45.982;8.890;2022-12-07T01:27:42;3.53;;;2.00;;
49948;SDS011;35840;45.982;8.890;2022-12-07T01:30:10;3.78;;;1.42;;
49948;SDS011;35840;45.982;8.890;2022-12-07T01:32:37;2.65;;;1.48;;
49948;SDS011;35840;45.982;8.890;2022-12-07T01:35:04;2.65;;;2.15;;
49948;SDS011;35840;45.982;8.890;2022-12-07T01:37:38;2.20;;;1.80;;
49948;SDS011;35840;45.982;8.890;2022-12-07T01:40:05;3.55;;;1.50;;
49948;SDS011;35840;45.982;8.890;2022-12-07T01:42:34;3.47;;;2.13;;
49948;SDS011;35840;45.982;8.890;2022-12-07T01:48:07;3.33;;;1.87;;
49948;SDS011;35840;45.982;8.890;2022-12-07T01:50:37;2.50;;;1.60;;
49948;SDS011;35840;45.982;8.890;2022-12-07T01:53:05;2.08;;;1.45;;
49948;SDS011;35840;45.982;8.890;2022-12-07T01:55:36;3.22;;;1.70;;
49948;SDS011;35840;45.982;8.890;2022-12-07T01:58:05;2.65;;;1.88;;
49948;SDS011;35840;45.982;8.890;2022-12-07T02:00:32;1.90;;;1.63;;
49948;SDS011;35840;45.982;8.890;2022-12-07T02:03:07;3.67;;;2.45;;
49948;SDS011;35840;45.982;8.890;2022-12-07T02:05:40;3.50;;;2.25;;
49948;SDS011;35840;45.982;8.890;2022-12-07T02:08:07;5.93;;;2.20;;
49948;SDS011;35840;45.982;8.890;2022-12-07T02:10:37;5.18;;;1.90;;
49948;SDS011;35840;45.982;8.890;2022-12-07T02:13:04;4.13;;;2.15;;
49948;SDS011;35840;45.982;8.890;2022-12-07T02:15:51;1.52;;;1.42;;
49948;SDS011;35840;45.982;8.890;2022-12-07T02:30:10;4.00;;;1.38;;
49948;SDS011;35840;45.982;8.890;2022-12-07T02:32:44;3.58;;;1.92;;
49948;SDS011;35840;45.982;8.890;2022-12-07T02:35:15;1.95;;;1.70;;
49948;SDS011;35840;45.982;8.890;2022-12-07T02:40:53;3.75;;;2.20;;
49948;SDS011;35840;45.982;8.890;2022-12-07T02:43:24;3.90;;;1.98;;
49948;SDS011;35840;45.982;8.890;2022-12-07T02:45:59;2.67;;;1.85;;
49948;SDS011;35840;45.982;8.890;2022-12-07T02:48:31;3.25;;;1.80;;
49948;SDS011;35840;45.982;8.890;2022-12-07T02:51:00;5.35;;;2.50;;
49948;SDS011;35840;45.982;8.890;2022-12-07T02:59:02;1.75;;;1.65;;
49948;SDS011;35840;45.982;8.890;2022-12-07T03:02:15;3.05;;;1.85;;
49948;SDS011;35840;45.982;8.890;2022-12-07T03:10:16;3.08;;;1.88;;
49948;SDS011;35840;45.982;8.890;2022-12-07T03:15:19;2.28;;;1.92;;
49948;SDS011;35840;45.982;8.890;2022-12-07T03:17:52;3.33;;;1.55;;
49948;SDS011;35840;45.982;8.890;2022-12-07T03:20:24;2.28;;;1.55;;
49948;SDS011;35840;45.982;8.890;2022-12-07T03:22:53;5.63;;;1.70;;
49948;SDS011;35840;45.982;8.890;2022-12-07T03:25:21;5.35;;;2.65;;
49948;SDS011;35840;45.982;8.890;2022-12-07T03:31:07;2.15;;;1.50;;
49948;SDS011;35840;45.982;8.890;2022-12-07T03:33:27;3.90;;;1.92;;
49948;SDS011;35840;45.982;8.890;2022-12-07T03:36:02;3.50;;;1.90;;
49948;SDS011;35840;45.982;8.890;2022-12-07T03:38:34;3.33;;;2.13;;
49948;SDS011;35840;45.982;8.890;2022-12-07T03:41:08;2.05;;;1.55;;
49948;SDS011;35840;45.982;8.890;2022-12-07T03:43:49;5.03;;;1.77;;
49948;SDS011;35840;45.982;8.890;2022-12-07T03:51:43;2.55;;;1.92;;
49948;SDS011;35840;45.982;8.890;2022-12-07T03:54:24;4.07;;;2.10;;
49948;SDS011;35840;45.982;8.890;2022-12-07T03:56:56;4.38;;;2.00;;
49948;SDS011;35840;45.982;8.890;2022-12-07T03:59:25;3.80;;;2.05;;
49948;SDS011;35840;45.982;8.890;2022-12-07T04:01:54;2.85;;;1.83;;
49948;SDS011;35840;45.982;8.890;2022-12-07T04:04:23;2.42;;;2.13;;
49948;SDS011;35840;45.982;8.890;2022-12-07T04:06:51;2.00;;;1.80;;
49948;SDS011;35840;45.982;8.890;2022-12-07T04:09:17;4.30;;;2.03;;
49948;SDS011;35840;45.982;8.890;2022-12-07T04:11:44;3.05;;;1.80;;
49948;SDS011;35840;45.982;8.890;2022-12-07T04:14:11;2.38;;;1.58;;
49948;SDS011;35840;45.982;8.890;2022-12-07T04:16:48;2.70;;;1.55;;
49948;SDS011;35840;45.982;8.890;2022-12-07T04:19:15;2.85;;;2.20;;
49948;SDS011;35840;45.982;8.890;2022-12-07T04:21:43;2.53;;;1.75;;
49948;SDS011;35840;45.982;8.890;2022-12-07T04:24:11;1.65;;;1.55;;
49948;SDS011;35840;45.982;8.890;2022-12-07T04:26:38;2.17;;;1.60;;
49948;SDS011;35840;45.982;8.890;2022-12-07T04:29:05;2.83;;;1.73;;
49948;SDS011;35840;45.982;8.890;2022-12-07T04:31:33;2.20;;;1.60;;
49948;SDS011;35840;45.982;8.890;2022-12-07T04:34:00;1.42;;;1.20;;
49948;SDS011;35840;45.982;8.890;2022-12-07T04:36:27;2.15;;;1.35;;
49948;SDS011;35840;45.982;8.890;2022-12-07T04:38:54;3.33;;;1.70;;
49948;SDS011;35840;45.982;8.890;2022-12-07T04:41:22;3.97;;;1.10;;
49948;SDS011;35840;45.982;8.890;2022-12-07T04:43:54;2.45;;;1.50;;
49948;SDS011;35840;45.982;8.890;2022-12-07T04:46:22;2.25;;;1.20;;
49948;SDS011;35840;45.982;8.890;2022-12-07T04:48:50;2.33;;;1.67;;
49948;SDS011;35840;45.982;8.890;2022-12-07T04:51:28;2.63;;;1.45;;
49948;SDS011;35840;45.982;8.890;2022-12-07T04:53:55;1.60;;;1.17;;
49948;SDS011;35840;45.982;8.890;2022-12-07T04:56:23;2.65;;;1.83;;
49948;SDS011;35840;45.982;8.890;2022-12-07T04:58:51;2.15;;;0.93;;
49948;SDS011;35840;45.982;8.890;2022-12-07T05:01:19;3.63;;;1.73;;
49948;SDS011;35840;45.982;8.890;2022-12-07T05:03:46;1.88;;;1.42;;
49948;SDS011;35840;45.982;8.890;2022-12-07T05:06:13;4.82;;;1.45;;
49948;SDS011;35840;45.982;8.890;2022-12-07T05:08:41;1.80;;;1.17;;
49948;SDS011;35840;45.982;8.890;2022-12-07T05:11:09;3.05;;;1.45;;
49948;SDS011;35840;45.982;8.890;2022-12-07T05:13:56;1.63;;;1.52;;
49948;SDS011;35840;45.982;8.890;2022-12-07T05:16:23;1.90;;;1.30;;
49948;SDS011;35840;45.982;8.890;2022-12-07T05:18:50;2.60;;;2.22;;
49948;SDS011;35840;45.982;8.890;2022-12-07T05:21:17;4.38;;;1.85;;
49948;SDS011;35840;45.982;8.890;2022-12-07T05:23:44;2.42;;;1.70;;
49948;SDS011;35840;45.982;8.890;2022-12-07T05:26:10;2.95;;;1.20;;
49948;SDS011;35840;45.982;8.890;2022-12-07T05:28:37;1.88;;;1.35;;
49948;SDS011;35840;45.982;8.890;2022-12-07T05:31:04;1.98;;;1.35;;
49948;SDS011;35840;45.982;8.890;2022-12-07T05:33:31;4.20;;;1.60;;
49948;SDS011;35840;45.982;8.890;2022-12-07T05:35:58;1.63;;;1.40;;
49948;SDS011;35840;45.982;8.890;2022-12-07T05:38:24;1.77;;;1.23;;
49948;SDS011;35840;45.982;8.890;2022-12-07T05:40:51;2.10;;;0.90;;
49948;SDS011;35840;45.982;8.890;2022-12-07T05:43:18;2.22;;;0.90;;
49948;SDS011;35840;45.982;8.890;2022-12-07T05:45:44;2.22;;;0.88;;
49948;SDS011;35840;45.982;8.890;2022-12-07T05:48:11;2.15;;;1.15;;
49948;SDS011;35840;45.982;8.890;2022-12-07T05:50:38;1.67;;;1.52;;
49948;SDS011;35840;45.982;8.890;2022-12-07T05:53:04;4.60;;;1.85;;
49948;SDS011;35840;45.982;8.890;2022-12-07T05:55:31;2.55;;;1.60;;
49948;SDS011;35840;45.982;8.890;2022-12-07T05:57:58;2.83;;;2.22;;
49948;SDS011;35840;45.982;8.890;2022-12-07T06:00:43;1.45;;;1.17;;
49948;SDS011;35840;45.982;8.890;2022-12-07T06:03:16;2.63;;;1.50;;
49948;SDS011;35840;45.982;8.890;2022-12-07T06:05:43;2.53;;;1.60;;
49948;SDS011;35840;45.982;8.890;2022-12-07T06:08:10;3.13;;;1.80;;
49948;SDS011;35840;45.982;8.890;2022-12-07T06:10:37;1.30;;;1.13;;
49948;SDS011;35840;45.982;8.890;2022-12-07T06:13:03;5.38;;;1.55;;
49948;SDS011;35840;45.982;8.890;2022-12-07T06:15:30;4.45;;;1.60;;
49948;SDS011;35840;45.982;8.890;2022-12-07T06:17:57;2.40;;;2.00;;
49948;SDS011;35840;45.982;8.890;2022-12-07T06:20:23;2.22;;;1.48;;
49948;SDS011;35840;45.982;8.890;2022-12-07T06:22:50;2.70;;;1.58;;
49948;SDS011;35840;45.982;8.890;2022-12-07T06:25:16;3.40;;;1.60;;
49948;SDS011;35840;45.982;8.890;2022-12-07T06:27:43;2.42;;;1.55;;
49948;SDS011;35840;45.982;8.890;2022-12-07T06:30:10;1.30;;;1.20;;
49948;SDS011;35840;45.982;8.890;2022-12-07T06:32:37;5.45;;;1.45;;
49948;SDS011;35840;45.982;8.890;2022-12-07T06:35:04;2.67;;;1.88;;
49948;SDS011;35840;45.982;8.890;2022-12-07T06:37:31;4.85;;;1.65;;
49948;SDS011;35840;45.982;8.890;2022-12-07T06:39:58;1.95;;;1.67;;
49948;SDS011;35840;45.982;8.890;2022-12-07T06:42:25;3.50;;;1.75;;
49948;SDS011;35840;45.982;8.890;2022-12-07T06:44:51;1.73;;;1.40;;
49948;SDS011;35840;45.982;8.890;2022-12-07T06:47:18;2.10;;;1.52;;
49948;SDS011;35840;45.982;8.890;2022-12-07T06:50:05;2.88;;;1.85;;
49948;SDS011;35840;45.982;8.890;2022-12-07T06:52:33;2.10;;;1.55;;
49948;SDS011;35840;45.982;8.890;2022-12-07T06:55:00;3.25;;;1.77;;
49948;SDS011;35840;45.982;8.890;2022-12-07T06:57:27;5.30;;;2.47;;
49948;SDS011;35840;45.982;8.890;2022-12-07T06:59:54;2.33;;;1.50;;
49948;SDS011;35840;45.982;8.890;2022-12-07T07:02:20;2.83;;;1.80;;
49948;SDS011;35840;45.982;8.890;2022-12-07T07:04:47;1.98;;;1.48;;
49948;SDS011;35840;45.982;8.890;2022-12-07T07:07:14;2.38;;;1.60;;
49948;SDS011;35840;45.982;8.890;2022-12-07T07:09:40;2.13;;;1.50;;
49948;SDS011;35840;45.982;8.890;2022-12-07T07:12:07;2.83;;;1.63;;
49948;SDS011;35840;45.982;8.890;2022-12-07T07:14:34;2.63;;;1.60;;
49948;SDS011;35840;45.982;8.890;2022-12-07T07:17:01;2.55;;;1.60;;
49948;SDS011;35840;45.982;8.890;2022-12-07T07:19:27;1.83;;;1.73;;
49948;SDS011;35840;45.982;8.890;2022-12-07T07:21:54;3.65;;;1.88;;
49948;SDS011;35840;45.982;8.890;2022-12-07T07:24:21;6.72;;;2.75;;
49948;SDS011;35840;45.982;8.890;2022-12-07T07:26:47;4.40;;;2.83;;
49948;SDS011;35840;45.982;8.890;2022-12-07T07:29:14;3.45;;;2.50;;
49948;SDS011;35840;45.982;8.890;2022-12-07T07:31:41;5.00;;;2.50;;
49948;SDS011;35840;45.982;8.890;2022-12-07T07:34:08;3.85;;;2.35;;
49948;SDS011;35840;45.982;8.890;2022-12-07T07:36:34;6.18;;;2.97;;
49948;SDS011;35840;45.982;8.890;2022-12-07T07:39:01;4.45;;;2.40;;
49948;SDS011;35840;45.982;8.890;2022-12-07T07:41:28;6.05;;;2.10;;
49948;SDS011;35840;45.982;8.890;2022-12-07T07:43:55;5.53;;;2.65;;
49948;SDS011;35840;45.982;8.890;2022-12-07T07:46:22;4.45;;;2.45;;
49948;SDS011;35840;45.982;8.890;2022-12-07T07:48:48;6.25;;;2.30;;
49948;SDS011;35840;45.982;8.890;2022-12-07T07:51:15;3.15;;;2.03;;
49948;SDS011;35840;45.982;8.890;2022-12-07T07:53:42;3.72;;;2.13;;
49948;SDS011;35840;45.982;8.890;2022-12-07T07:56:08;2.60;;;1.73;;
49948;SDS011;35840;45.982;8.890;2022-12-07T07:58:35;4.95;;;1.85;;
49948;SDS011;35840;45.982;8.890;2022-12-07T08:01:05;2.13;;;1.80;;
49948;SDS011;35840;45.982;8.890;2022-12-07T08:03:33;3.00;;;2.17;;
49948;SDS011;35840;45.982;8.890;2022-12-07T08:06:01;3.13;;;1.92;;
49948;SDS011;35840;45.982;8.890;2022-12-07T08:08:29;2.83;;;1.52;;
49948;SDS011;35840;45.982;8.890;2022-12-07T08:10:55;4.28;;;1.75;;
49948;SDS011;35840;45.982;8.890;2022-12-07T08:13:22;3.63;;;1.83;;
49948;SDS011;35840;45.982;8.890;2022-12-07T08:15:56;2.47;;;1.60;;
49948;SDS011;35840;45.982;8.890;2022-12-07T08:18:23;4.30;;;2.20;;
49948;SDS011;35840;45.982;8.890;2022-12-07T08:20:50;3.90;;;1.95;;
49948;SDS011;35840;45.982;8.890;2022-12-07T08:23:16;2.85;;;1.80;;
49948;SDS011;35840;45.982;8.890;2022-12-07T08:25:43;2.97;;;1.80;;
49948;SDS011;35840;45.982;8.890;2022-12-07T08:28:10;3.30;;;2.10;;
49948;SDS011;35840;45.982;8.890;2022-12-07T08:30:36;2.70;;;1.70;;
49948;SDS011;35840;45.982;8.890;2022-12-07T08:33:03;4.35;;;2.25;;
49948;SDS011;35840;45.982;8.890;2022-12-07T08:35:32;4.28;;;2.45;;
49948;SDS011;35840;45.982;8.890;2022-12-07T08:37:59;4.93;;;2.78;;
49948;SDS011;35840;45.982;8.890;2022-12-07T08:40:28;4.65;;;2.20;;
49948;SDS011;35840;45.982;8.890;2022-12-07T08:42:55;3.38;;;2.47;;
49948;SDS011;35840;45.982;8.890;2022-12-07T08:45:22;4.40;;;2.50;;
49948;SDS011;35840;45.982;8.890;2022-12-07T08:50:22;5.72;;;2.95;;
49948;SDS011;35840;45.982;8.890;2022-12-07T08:52:54;6.85;;;3.33;;
49948;SDS011;35840;45.982;8.890;2022-12-07T08:55:23;5.55;;;3.53;;
49948;SDS011;35840;45.982;8.890;2022-12-07T08:57:50;4.43;;;3.20;;
49948;SDS011;35840;45.982;8.890;2022-12-07T09:00:17;4.25;;;2.90;;
49948;SDS011;35840;45.982;8.890;2022-12-07T09:02:44;3.97;;;3.20;;
49948;SDS011;35840;45.982;8.890;2022-12-07T09:05:11;6.50;;;3.63;;
49948;SDS011;35840;45.982;8.890;2022-12-07T09:07:46;4.13;;;3.17;;
49948;SDS011;35840;45.982;8.890;2022-12-07T09:10:17;8.77;;;3.57;;
49948;SDS011;35840;45.982;8.890;2022-12-07T09:12:44;4.80;;;2.58;;
49948;SDS011;35840;45.982;8.890;2022-12-07T09:15:11;7.30;;;3.22;;
49948;SDS011;35840;45.982;8.890;2022-12-07T09:17:37;4.82;;;3.53;;
49948;SDS011;35840;45.982;8.890;2022-12-07T09:20:04;4.78;;;3.03;;
49948;SDS011;35840;45.982;8.890;2022-12-07T09:22:32;5.60;;;3.38;;
49948;SDS011;35840;45.982;8.890;2022-12-07T09:24:59;6.53;;;3.22;;
49948;SDS011;35840;45.982;8.890;2022-12-07T09:27:27;5.88;;;3.70;;
49948;SDS011;35840;45.982;8.890;2022-12-07T09:29:54;6.45;;;3.80;;
49948;SDS011;35840;45.982;8.890;2022-12-07T09:32:21;7.82;;;3.65;;
49948;SDS011;35840;45.982;8.890;2022-12-07T09:34:49;5.57;;;3.28;;
49948;SDS011;35840;45.982;8.890;2022-12-07T09:37:16;6.72;;;3.20;;
49948;SDS011;35840;45.982;8.890;2022-12-07T09:39:43;5.63;;;3.22;;
49948;SDS011;35840;45.982;8.890;2022-12-07T09:42:35;5.18;;;3.00;;
49948;SDS011;35840;45.982;8.890;2022-12-07T09:45:07;5.57;;;3.63;;
49948;SDS011;35840;45.982;8.890;2022-12-07T09:47:40;5.45;;;3.05;;
49948;SDS011;35840;45.982;8.890;2022-12-07T09:50:10;6.75;;;3.58;;
49948;SDS011;35840;45.982;8.890;2022-12-07T09:52:40;4.40;;;3.10;;
49948;SDS011;35840;45.982;8.890;2022-12-07T09:55:12;4.43;;;2.85;;
49948;SDS011;35840;45.982;8.890;2022-12-07T09:57:41;4.00;;;3.10;;
49948;SDS011;35840;45.982;8.890;2022-12-07T10:00:15;5.90;;;3.22;;
49948;SDS011;35840;45.982;8.890;2022-12-07T10:02:46;5.15;;;3.00;;
49948;SDS011;35840;45.982;8.890;2022-12-07T10:05:18;3.65;;;2.25;;
49948;SDS011;35840;45.982;8.890;2022-12-07T10:07:50;4.50;;;2.55;;
49948;SDS011;35840;45.982;8.890;2022-12-07T10:10:28;2.85;;;1.92;;
49948;SDS011;35840;45.982;8.890;2022-12-07T10:13:06;3.70;;;1.85;;
49948;SDS011;35840;45.982;8.890;2022-12-07T10:15:41;2.92;;;1.90;;
49948;SDS011;35840;45.982;8.890;2022-12-07T10:21:03;2.60;;;1.88;;
49948;SDS011;35840;45.982;8.890;2022-12-07T10:26:39;2.00;;;1.40;;
49948;SDS011;35840;45.982;8.890;2022-12-07T10:31:51;2.55;;;2.05;;
49948;SDS011;35840;45.982;8.890;2022-12-07T10:34:27;2.03;;;1.42;;
49948;SDS011;35840;45.982;8.890;2022-12-07T10:37:13;2.40;;;1.63;;
49948;SDS011;35840;45.982;8.890;2022-12-07T10:39:56;1.70;;;1.35;;
49948;SDS011;35840;45.982;8.890;2022-12-07T10:45:31;1.40;;;1.10;;
49948;SDS011;35840;45.982;8.890;2022-12-07T10:47:51;3.53;;;1.75;;
49948;SDS011;35840;45.982;8.890;2022-12-07T11:10:26;2.88;;;1.25;;
49948;SDS011;35840;45.982;8.890;2022-12-07T11:13:15;1.50;;;1.30;;
49948;SDS011;35840;45.982;8.890;2022-12-07T11:16:16;1.90;;;1.17;;
49948;SDS011;35840;45.982;8.890;2022-12-07T11:19:51;5.28;;;1.13;;
49948;SDS011;35840;45.982;8.890;2022-12-07T11:27:37;1.80;;;1.15;;
49948;SDS011;35840;45.982;8.890;2022-12-07T11:32:55;2.38;;;1.30;;
49948;SDS011;35840;45.982;8.890;2022-12-07T11:38:41;2.00;;;1.30;;
49948;SDS011;35840;45.982;8.890;2022-12-07T11:41:12;1.65;;;1.38;;
49948;SDS011;35840;45.982;8.890;2022-12-07T11:43:56;1.83;;;1.20;;
49948;SDS011;35840;45.982;8.890;2022-12-07T11:46:49;1.85;;;1.23;;
49948;SDS011;35840;45.982;8.890;2022-12-07T11:49:43;2.63;;;1.40;;
49948;SDS011;35840;45.982;8.890;2022-12-07T11:52:18;2.28;;;1.15;;
49948;SDS011;35840;45.982;8.890;2022-12-07T11:54:52;1.63;;;1.27;;
49948;SDS011;35840;45.982;8.890;2022-12-07T11:57:41;1.77;;;1.40;;
49948;SDS011;35840;45.982;8.890;2022-12-07T12:00:16;2.30;;;1.42;;
49948;SDS011;35840;45.982;8.890;2022-12-07T12:02:48;1.60;;;1.10;;
49948;SDS011;35840;45.982;8.890;2022-12-07T12:05:37;2.33;;;1.10;;
49948;SDS011;35840;45.982;8.890;2022-12-07T12:08:18;1.83;;;1.15;;
49948;SDS011;35840;45.982;8.890;2022-12-07T12:14:12;2.33;;;1.20;;
49948;SDS011;35840;45.982;8.890;2022-12-07T12:22:41;1.25;;;0.80;;
49948;SDS011;35840;45.982;8.890;2022-12-07T12:25:21;2.30;;;1.40;;
49948;SDS011;35840;45.982;8.890;2022-12-07T12:27:53;2.03;;;1.17;;
49948;SDS011;35840;45.982;8.890;2022-12-07T12:30:31;0.93;;;0.85;;
49948;SDS011;35840;45.982;8.890;2022-12-07T12:33:13;1.23;;;1.00;;
49948;SDS011;35840;45.982;8.890;2022-12-07T12:46:49;1.77;;;1.08;;
49948;SDS011;35840;45.982;8.890;2022-12-07T12:59:31;1.10;;;1.00;;
49948;SDS011;35840;45.982;8.890;2022-12-07T13:04:53;1.20;;;1.08;;
49948;SDS011;35840;45.982;8.890;2022-12-07T13:15:35;4.05;;;1.13;;
49948;SDS011;35840;45.982;8.890;2022-12-07T13:20:55;1.13;;;1.00;;
49948;SDS011;35840;45.982;8.890;2022-12-07T13:23:23;1.70;;;1.40;;
49948;SDS011;35840;45.982;8.890;2022-12-07T13:28:35;2.08;;;1.15;;
49948;SDS011;35840;45.982;8.890;2022-12-07T13:31:20;11.15;;;1.90;;
49948;SDS011;35840;45.982;8.890;2022-12-07T13:33:54;4.05;;;2.42;;
49948;SDS011;35840;45.982;8.890;2022-12-07T13:36:24;2.30;;;1.42;;
49948;SDS011;35840;45.982;8.890;2022-12-07T13:38:54;1.65;;;1.48;;
49948;SDS011;35840;45.982;8.890;2022-12-07T13:41:24;2.22;;;1.52;;
49948;SDS011;35840;45.982;8.890;2022-12-07T13:47:26;3.70;;;2.10;;
49948;SDS011;35840;45.982;8.890;2022-12-07T13:54:47;2.97;;;1.67;;
49948;SDS011;35840;45.982;8.890;2022-12-07T13:57:16;1.85;;;1.38;;
49948;SDS011;35840;45.982;8.890;2022-12-07T13:59:43;2.65;;;1.58;;
49948;SDS011;35840;45.982;8.890;2022-12-07T14:02:18;1.88;;;1.65;;
49948;SDS011;35840;45.982;8.890;2022-12-07T14:04:48;2.20;;;1.85;;
49948;SDS011;35840;45.982;8.890;2022-12-07T14:07:20;2.85;;;1.77;;
49948;SDS011;35840;45.982;8.890;2022-12-07T14:09:53;5.15;;;2.22;;
49948;SDS011;35840;45.982;8.890;2022-12-07T14:12:25;2.80;;;1.70;;
49948;SDS011;35840;45.982;8.890;2022-12-07T14:14:53;2.00;;;1.63;;
49948;SDS011;35840;45.982;8.890;2022-12-07T14:17:23;3.25;;;1.80;;
49948;SDS011;35840;45.982;8.890;2022-12-07T14:19:55;2.83;;;1.80;;
49948;SDS011;35840;45.982;8.890;2022-12-07T14:22:25;2.72;;;2.15;;
49948;SDS011;35840;45.982;8.890;2022-12-07T14:24:59;3.58;;;1.85;;
49948;SDS011;35840;45.982;8.890;2022-12-07T14:27:38;3.35;;;2.28;;
49948;SDS011;35840;45.982;8.890;2022-12-07T14:30:05;2.78;;;2.10;;
49948;SDS011;35840;45.982;8.890;2022-12-07T14:32:34;2.72;;;2.10;;
49948;SDS011;35840;45.982;8.890;2022-12-07T14:35:08;4.82;;;2.85;;
49948;SDS011;35840;45.982;8.890;2022-12-07T14:37:37;6.07;;;2.45;;
49948;SDS011;35840;45.982;8.890;2022-12-07T14:40:06;3.22;;;2.28;;
49948;SDS011;35840;45.982;8.890;2022-12-07T14:42:33;5.25;;;3.22;;
49948;SDS011;35840;45.982;8.890;2022-12-07T14:45:01;4.85;;;2.35;;
49948;SDS011;35840;45.982;8.890;2022-12-07T14:47:28;4.68;;;2.95;;
49948;SDS011;35840;45.982;8.890;2022-12-07T14:50:16;3.55;;;2.60;;
49948;SDS011;35840;45.982;8.890;2022-12-07T14:52:49;5.00;;;3.03;;
49948;SDS011;35840;45.982;8.890;2022-12-07T14:55:42;5.10;;;2.70;;
49948;SDS011;35840;45.982;8.890;2022-12-07T14:58:15;2.53;;;1.83;;
49948;SDS011;35840;45.982;8.890;2022-12-07T15:00:44;6.35;;;2.42;;
49948;SDS011;35840;45.982;8.890;2022-12-07T15:03:11;3.20;;;1.80;;
49948;SDS011;35840;45.982;8.890;2022-12-07T15:05:39;3.80;;;2.17;;
49948;SDS011;35840;45.982;8.890;2022-12-07T15:08:10;2.03;;;1.55;;
49948;SDS011;35840;45.982;8.890;2022-12-07T15:10:39;3.45;;;2.30;;
49948;SDS011;35840;45.982;8.890;2022-12-07T15:13:06;3.10;;;2.05;;
49948;SDS011;35840;45.982;8.890;2022-12-07T15:15:52;6.28;;;3.35;;
49948;SDS011;35840;45.982;8.890;2022-12-07T15:18:21;6.15;;;4.35;;
49948;SDS011;35840;45.982;8.890;2022-12-07T15:20:49;5.00;;;3.25;;
49948;SDS011;35840;45.982;8.890;2022-12-07T15:23:15;3.17;;;2.28;;
49948;SDS011;35840;45.982;8.890;2022-12-07T15:25:43;3.70;;;2.40;;
49948;SDS011;35840;45.982;8.890;2022-12-07T15:28:11;7.10;;;3.13;;
49948;SDS011;35840;45.982;8.890;2022-12-07T15:30:38;5.95;;;3.20;;
49948;SDS011;35840;45.982;8.890;2022-12-07T15:33:06;3.92;;;2.60;;
49948;SDS011;35840;45.982;8.890;2022-12-07T15:35:33;4.55;;;2.90;;
49948;SDS011;35840;45.982;8.890;2022-12-07T15:38:05;4.20;;;2.83;;
49948;SDS011;35840;45.982;8.890;2022-12-07T15:40:31;3.00;;;2.15;;
49948;SDS011;35840;45.982;8.890;2022-12-07T15:42:58;8.20;;;2.72;;
49948;SDS011;35840;45.982;8.890;2022-12-07T15:45:25;6.55;;;2.97;;
49948;SDS011;35840;45.982;8.890;2022-12-07T15:47:52;5.43;;;2.78;;
49948;SDS011;35840;45.982;8.890;2022-12-07T15:50:41;4.03;;;2.38;;
49948;SDS011;35840;45.982;8.890;2022-12-07T15:53:08;6.53;;;3.30;;
49948;SDS011;35840;45.982;8.890;2022-12-07T15:55:34;4.07;;;2.80;;
49948;SDS011;35840;45.982;8.890;2022-12-07T15:58:01;4.85;;;2.90;;
49948;SDS011;35840;45.982;8.890;2022-12-07T16:00:28;6.60;;;2.45;;
49948;SDS011;35840;45.982;8.890;2022-12-07T16:02:54;3.95;;;2.22;;
49948;SDS011;35840;45.982;8.890;2022-12-07T16:05:21;8.15;;;3.42;;
49948;SDS011;35840;45.982;8.890;2022-12-07T16:07:48;5.72;;;3.28;;
49948;SDS011;35840;45.982;8.890;2022-12-07T16:10:14;10.20;;;6.32;;
49948;SDS011;35840;45.982;8.890;2022-12-07T16:12:41;17.30;;;8.55;;
49948;SDS011;35840;45.982;8.890;2022-12-07T16:15:08;17.50;;;10.80;;
49948;SDS011;35840;45.982;8.890;2022-12-07T16:17:35;19.27;;;10.13;;
49948;SDS011;35840;45.982;8.890;2022-12-07T16:20:02;18.67;;;10.80;;
49948;SDS011;35840;45.982;8.890;2022-12-07T16:22:30;10.13;;;6.40;;
49948;SDS011;35840;45.982;8.890;2022-12-07T16:24:57;9.85;;;5.78;;
49948;SDS011;35840;45.982;8.890;2022-12-07T16:27:24;7.65;;;4.78;;
49948;SDS011;35840;45.982;8.890;2022-12-07T16:29:51;8.68;;;5.07;;
49948;SDS011;35840;45.982;8.890;2022-12-07T16:32:18;5.28;;;3.72;;
49948;SDS011;35840;45.982;8.890;2022-12-07T16:34:45;6.32;;;3.75;;
49948;SDS011;35840;45.982;8.890;2022-12-07T16:37:11;7.85;;;4.45;;
49948;SDS011;35840;45.982;8.890;2022-12-07T16:39:38;6.35;;;4.13;;
49948;SDS011;35840;45.982;8.890;2022-12-07T16:42:05;5.25;;;4.13;;
49948;SDS011;35840;45.982;8.890;2022-12-07T16:44:32;5.10;;;3.53;;
49948;SDS011;35840;45.982;8.890;2022-12-07T16:46:58;6.03;;;3.67;;
49948;SDS011;35840;45.982;8.890;2022-12-07T16:49:27;6.38;;;3.67;;
49948;SDS011;35840;45.982;8.890;2022-12-07T16:51:53;7.00;;;3.60;;
49948;SDS011;35840;45.982;8.890;2022-12-07T16:54:40;8.10;;;4.20;;
49948;SDS011;35840;45.982;8.890;2022-12-07T16:57:07;5.00;;;3.25;;
49948;SDS011;35840;45.982;8.890;2022-12-07T16:59:33;7.43;;;4.45;;
49948;SDS011;35840;45.982;8.890;2022-12-07T17:02:00;8.48;;;5.32;;
49948;SDS011;35840;45.982;8.890;2022-12-07T17:04:27;11.35;;;5.45;;
49948;SDS011;35840;45.982;8.890;2022-12-07T17:06:54;9.45;;;5.00;;
49948;SDS011;35840;45.982;8.890;2022-12-07T17:09:21;8.35;;;4.15;;
49948;SDS011;35840;45.982;8.890;2022-12-07T17:11:47;7.50;;;4.60;;
49948;SDS011;35840;45.982;8.890;2022-12-07T17:14:14;8.70;;;5.65;;
49948;SDS011;35840;45.982;8.890;2022-12-07T17:17:00;7.90;;;4.80;;
49948;SDS011;35840;45.982;8.890;2022-12-07T17:19:26;7.18;;;4.53;;
49948;SDS011;35840;45.982;8.890;2022-12-07T17:21:53;6.50;;;3.75;;
49948;SDS011;35840;45.982;8.890;2022-12-07T17:24:21;6.45;;;3.90;;
49948;SDS011;35840;45.982;8.890;2022-12-07T17:26:47;6.50;;;3.47;;
49948;SDS011;35840;45.982;8.890;2022-12-07T17:29:15;6.85;;;4.05;;
49948;SDS011;35840;45.982;8.890;2022-12-07T17:31:44;5.78;;;3.20;;